createdAt,value
2019-02-14T00:00:58.637Z,10.60
2019-02-14T00:03:28.474Z,9.27
2019-02-14T00:05:57.653Z,10.07
2019-02-14T00:08:27.131Z,10.53
2019-02-14T00:10:56.302Z,9.87
2019-02-14T00:13:25.447Z,10.50
2019-02-14T00:15:54.749Z,9.93
2019-02-14T00:18:24.172Z,10.60
2019-02-14T00:20:53.459Z,10.90
2019-02-14T00:23:22.633Z,11.37
2019-02-14T00:25:51.989Z,9.90
2019-02-14T00:28:21.737Z,10.50
2019-02-14T00:30:50.903Z,10.17
2019-02-14T00:33:20.834Z,10.30
2019-02-14T00:35:50.247Z,10.80
2019-02-14T00:38:19.525Z,10.67
2019-02-14T00:40:48.680Z,10.40
2019-02-14T00:43:17.842Z,10.30
2019-02-14T00:45:47.369Z,10.30
2019-02-14T00:48:16.632Z,9.80
2019-02-14T00:50:45.961Z,10.07
2019-02-14T00:53:15.214Z,9.83
2019-02-14T00:55:44.819Z,9.53
2019-02-14T00:58:14.215Z,9.60
2019-02-14T01:00:43.725Z,10.40
2019-02-14T01:03:12.969Z,10.20
2019-02-14T01:05:42.382Z,10.13
2019-02-14T01:08:11.685Z,9.53
2019-02-14T01:10:40.901Z,10.10
2019-02-14T01:13:10.253Z,9.87
2019-02-14T01:15:39.729Z,10.23
2019-02-14T01:18:09.664Z,10.53
2019-02-14T01:20:38.921Z,10.07
2019-02-14T01:23:08.417Z,9.73
2019-02-14T01:25:37.737Z,10.10
2019-02-14T01:28:07.241Z,10.47
2019-02-14T01:30:36.488Z,10.97
2019-02-14T01:33:06.099Z,10.90
2019-02-14T01:35:41.785Z,11.00
2019-02-14T01:38:06.567Z,9.93
2019-02-14T01:40:35.877Z,10.33
2019-02-14T01:43:05.149Z,10.77
2019-02-14T01:45:34.330Z,11.60
2019-02-14T01:48:03.602Z,11.77
2019-02-14T01:50:32.871Z,10.20
2019-02-14T01:53:02.195Z,10.63
2019-02-14T01:55:32.593Z,10.63
2019-02-14T01:58:02.406Z,10.50
2019-02-14T02:00:31.785Z,9.80
2019-02-14T02:03:00.992Z,10.60
2019-02-14T02:05:30.277Z,10.90
2019-02-14T02:07:59.561Z,9.83
2019-02-14T02:10:29.037Z,9.47
2019-02-14T02:12:58.236Z,10.50
2019-02-14T02:15:27.547Z,10.83
2019-02-14T02:17:59.939Z,10.00
2019-02-14T02:20:33.369Z,9.60
2019-02-14T02:23:00.765Z,9.00
2019-02-14T02:25:30.267Z,8.93
2019-02-14T02:27:59.665Z,9.40
2019-02-14T02:30:28.903Z,9.90
2019-02-14T02:32:58.262Z,10.50
2019-02-14T02:35:27.601Z,10.83
2019-02-14T02:37:56.966Z,10.03
2019-02-14T02:40:26.222Z,10.23
2019-02-14T02:42:55.574Z,13.07
2019-02-14T02:45:25.068Z,10.33
2019-02-14T02:47:54.681Z,10.70
2019-02-14T02:50:24.002Z,10.27
2019-02-14T02:52:53.367Z,9.63
2019-02-14T02:55:22.736Z,10.07
2019-02-14T02:57:52.182Z,9.97
2019-02-14T03:00:21.514Z,10.17
2019-02-14T03:02:50.764Z,10.10
2019-02-14T03:05:20.421Z,10.10
2019-02-14T03:07:49.877Z,9.03
2019-02-14T03:10:19.170Z,10.10
2019-02-14T03:12:48.413Z,9.90
2019-02-14T03:15:17.709Z,9.93
2019-02-14T03:17:47.106Z,9.87
2019-02-14T03:20:16.508Z,10.30
2019-02-14T03:22:46.098Z,10.53
2019-02-14T03:25:16.942Z,11.20
2019-02-14T03:27:46.223Z,10.17
2019-02-14T03:30:15.845Z,10.63
2019-02-14T03:32:45.215Z,10.07
2019-02-14T03:35:14.685Z,9.87
2019-02-14T03:37:44.320Z,9.90
2019-02-14T03:40:13.737Z,9.57
2019-02-14T03:42:43.030Z,9.57
2019-02-14T03:45:15.387Z,10.23
2019-02-14T03:47:44.654Z,9.87
2019-02-14T03:50:13.992Z,10.13
2019-02-14T03:52:43.637Z,10.20
2019-02-14T03:55:13.104Z,10.77
2019-02-14T03:57:42.677Z,9.77
2019-02-14T04:00:13.743Z,9.97
2019-02-14T04:02:43.000Z,10.03
2019-02-14T04:05:12.471Z,9.70
2019-02-14T04:07:45.223Z,10.83
2019-02-14T04:10:14.398Z,10.77
2019-02-14T04:12:43.699Z,10.90
2019-02-14T04:15:14.885Z,10.63
2019-02-14T04:17:44.272Z,10.57
2019-02-14T04:20:14.005Z,10.17
2019-02-14T04:22:43.242Z,10.17
2019-02-14T04:25:12.732Z,11.23
2019-02-14T04:27:42.545Z,11.33
2019-02-14T04:30:12.108Z,11.37
2019-02-14T04:32:41.549Z,10.77
2019-02-14T04:35:11.129Z,10.73
2019-02-14T04:37:40.474Z,10.57
2019-02-14T04:40:11.209Z,11.00
2019-02-14T04:42:40.582Z,11.30
2019-02-14T04:45:09.792Z,10.47
2019-02-14T04:47:39.209Z,10.70
2019-02-14T04:50:08.504Z,10.90
2019-02-14T04:52:37.639Z,11.00
2019-02-14T04:55:07.194Z,11.30
2019-02-14T04:57:36.351Z,10.50
2019-02-14T05:00:06.174Z,10.73
2019-02-14T05:02:35.429Z,10.07
2019-02-14T05:05:04.936Z,10.67
2019-02-14T05:07:34.150Z,10.47
2019-02-14T05:10:04.028Z,10.50
2019-02-14T05:12:33.610Z,10.17
2019-02-14T05:15:03.129Z,10.07
2019-02-14T05:17:33.876Z,9.80
2019-02-14T05:20:03.494Z,10.07
2019-02-14T05:22:33.074Z,10.73
2019-02-14T05:25:02.322Z,9.90
2019-02-14T05:27:31.581Z,10.23
2019-02-14T05:30:01.402Z,9.67
2019-02-14T05:32:30.839Z,10.13
2019-02-14T05:35:00.250Z,10.53
2019-02-14T05:37:29.743Z,10.07
2019-02-14T05:39:59.236Z,9.77
2019-02-14T05:42:28.517Z,10.23
2019-02-14T05:44:58.161Z,10.30
2019-02-14T05:47:27.372Z,9.60
2019-02-14T05:49:56.612Z,10.00
2019-02-14T05:52:26.107Z,10.07
2019-02-14T05:54:55.315Z,10.17
2019-02-14T05:57:25.117Z,9.27
2019-02-14T05:59:54.679Z,8.93
2019-02-14T06:02:24.033Z,9.70
2019-02-14T06:04:53.296Z,10.40
2019-02-14T06:07:22.731Z,10.20
2019-02-14T06:09:52.202Z,9.60
2019-02-14T06:12:21.390Z,9.83
2019-02-14T06:14:50.810Z,9.03
2019-02-14T06:17:20.046Z,9.77
2019-02-14T06:19:49.304Z,9.50
2019-02-14T06:22:18.613Z,9.47
2019-02-14T06:24:47.831Z,9.07
2019-02-14T06:27:17.364Z,10.27
2019-02-14T06:29:46.593Z,10.57
2019-02-14T06:32:16.418Z,8.87
2019-02-14T06:34:45.691Z,9.67
2019-02-14T06:37:15.002Z,9.40
2019-02-14T06:39:44.268Z,10.30
2019-02-14T06:42:13.521Z,9.83
2019-02-14T06:44:42.696Z,8.80
2019-02-14T06:47:11.993Z,9.63
2019-02-14T06:49:41.691Z,8.87
2019-02-14T06:52:10.975Z,10.27
2019-02-14T06:54:40.181Z,11.07
2019-02-14T06:57:09.666Z,11.40
2019-02-14T06:59:40.454Z,10.60
2019-02-14T07:02:09.845Z,10.83
2019-02-14T07:04:39.355Z,10.63
2019-02-14T07:07:08.677Z,10.53
2019-02-14T07:09:37.954Z,10.70
2019-02-14T07:14:36.749Z,10.47
2019-02-14T07:17:06.074Z,10.00
2019-02-14T07:19:35.875Z,10.23
2019-02-14T07:22:05.152Z,11.70
2019-02-14T07:24:34.462Z,10.40
2019-02-14T07:27:04.042Z,10.67
2019-02-14T07:29:33.321Z,10.63
2019-02-14T07:32:03.007Z,10.70
2019-02-14T07:34:32.842Z,10.80
2019-02-14T07:37:02.233Z,11.67
2019-02-14T07:39:31.611Z,11.33
2019-02-14T07:42:01.249Z,11.40
2019-02-14T07:44:30.649Z,11.73
2019-02-14T07:47:00.111Z,10.93
2019-02-14T07:49:29.482Z,12.07
2019-02-14T07:51:58.732Z,11.77
2019-02-14T07:54:27.993Z,11.40
2019-02-14T07:56:57.293Z,10.50
2019-02-14T07:59:26.763Z,10.20
2019-02-14T08:01:56.418Z,10.90
2019-02-14T08:04:25.654Z,10.27
2019-02-14T08:06:54.956Z,10.73
2019-02-14T08:09:24.299Z,11.07
2019-02-14T08:11:53.615Z,9.57
2019-02-14T08:14:23.205Z,10.47
2019-02-14T08:16:52.462Z,10.10
2019-02-14T08:19:21.739Z,10.90
2019-02-14T08:21:51.397Z,10.70
2019-02-14T08:24:20.870Z,10.23
2019-02-14T08:26:50.082Z,10.33
2019-02-14T08:29:19.344Z,9.63
2019-02-14T08:31:48.879Z,11.60
2019-02-14T08:34:18.057Z,10.50
2019-02-14T08:36:47.613Z,10.77
2019-02-14T08:39:16.774Z,11.50
2019-02-14T08:41:46.026Z,10.50
2019-02-14T08:44:15.335Z,10.40
2019-02-14T08:46:44.518Z,10.97
2019-02-14T08:49:14.139Z,11.23
2019-02-14T08:51:43.424Z,12.00
2019-02-14T08:54:13.469Z,11.57
2019-02-14T08:56:42.957Z,12.07
2019-02-14T08:59:12.297Z,12.17
2019-02-14T09:01:41.993Z,13.53
2019-02-14T09:04:11.519Z,14.50
2019-02-14T09:06:41.594Z,15.73
2019-02-14T09:09:10.989Z,15.20
2019-02-14T09:11:40.277Z,15.43
2019-02-14T09:14:09.590Z,16.07
2019-02-14T09:16:40.051Z,16.07
2019-02-14T09:19:09.354Z,16.73
2019-02-14T09:21:38.530Z,13.70
2019-02-14T09:24:08.085Z,13.90
2019-02-14T09:26:37.917Z,14.13
2019-02-14T09:29:07.354Z,13.80
2019-02-14T09:31:36.716Z,13.83
2019-02-14T09:34:06.055Z,12.13
2019-02-14T09:36:35.303Z,14.60
2019-02-14T09:39:05.501Z,24.47
2019-02-14T09:41:34.763Z,12.67
2019-02-14T09:44:04.152Z,11.77
2019-02-14T09:46:33.672Z,12.73
2019-02-14T09:49:03.077Z,13.00
2019-02-14T09:51:32.437Z,12.97
2019-02-14T09:54:02.074Z,13.00
2019-02-14T09:56:31.339Z,13.47
2019-02-14T09:59:00.866Z,13.60
2019-02-14T10:01:30.183Z,14.70
2019-02-14T10:03:59.499Z,13.53
2019-02-14T10:06:36.360Z,14.33
2019-02-14T10:09:00.906Z,13.90
2019-02-14T10:11:30.554Z,14.00
2019-02-14T10:14:00.049Z,14.53
2019-02-14T10:16:30.293Z,13.60
2019-02-14T10:18:59.531Z,14.70
2019-02-14T10:21:28.837Z,14.83
2019-02-14T10:23:58.762Z,15.20
2019-02-14T10:26:28.006Z,16.27
2019-02-14T10:28:57.478Z,15.93
2019-02-14T10:31:26.746Z,14.27
2019-02-14T10:33:55.967Z,15.50
2019-02-14T10:36:25.543Z,12.83
2019-02-14T10:38:54.709Z,17.67
2019-02-14T10:41:23.929Z,13.90
2019-02-14T10:43:53.654Z,14.70
2019-02-14T10:46:23.123Z,22.70
2019-02-14T10:48:53.472Z,14.23
2019-02-14T10:51:22.896Z,13.43
2019-02-14T10:53:52.425Z,13.83
2019-02-14T10:56:22.097Z,17.67
2019-02-14T10:58:51.375Z,13.93
2019-02-14T11:01:20.618Z,14.67
2019-02-14T11:03:49.943Z,16.30
2019-02-14T11:06:19.540Z,16.13
2019-02-14T11:08:48.839Z,15.07
2019-02-14T11:11:18.385Z,14.63
2019-02-14T11:13:47.898Z,13.17
2019-02-14T11:16:17.578Z,15.50
2019-02-14T11:18:46.875Z,14.47
2019-02-14T11:21:16.249Z,13.60
2019-02-14T11:23:45.558Z,13.60
2019-02-14T11:26:14.817Z,13.17
2019-02-14T11:28:44.121Z,13.97
2019-02-14T11:31:14.358Z,14.03
2019-02-14T11:33:43.682Z,14.33
2019-02-14T11:36:12.968Z,15.33
2019-02-14T11:38:42.621Z,13.47
2019-02-14T11:41:12.303Z,14.47
2019-02-14T11:43:42.098Z,27.00
2019-02-14T11:46:11.385Z,13.17
2019-02-14T11:48:40.635Z,24.80
2019-02-14T11:51:09.859Z,14.20
2019-02-14T11:53:39.369Z,12.77
2019-02-14T11:56:13.606Z,13.30
2019-02-14T11:58:43.412Z,14.20
2019-02-14T12:01:12.665Z,14.93
2019-02-14T12:03:42.163Z,17.90
2019-02-14T12:06:17.379Z,12.83
2019-02-14T12:08:52.954Z,19.30
2019-02-14T12:11:14.416Z,13.17
2019-02-14T12:13:43.786Z,13.53
2019-02-14T12:16:13.142Z,12.97
2019-02-14T12:18:42.342Z,16.47
2019-02-14T12:21:11.721Z,15.53
2019-02-14T12:23:40.986Z,14.93
2019-02-14T12:26:10.499Z,14.43
2019-02-14T12:28:39.903Z,15.83
2019-02-14T12:31:09.365Z,14.07
2019-02-14T12:33:38.990Z,17.10
2019-02-14T12:36:08.342Z,12.87
2019-02-14T12:38:37.645Z,13.77
2019-02-14T12:41:06.894Z,13.13
2019-02-14T12:43:36.190Z,13.00
2019-02-14T12:46:05.745Z,16.83
2019-02-14T12:48:35.301Z,13.47
2019-02-14T12:51:04.870Z,12.90
2019-02-14T12:53:34.170Z,12.37
2019-02-14T12:56:04.230Z,12.40
2019-02-14T12:58:33.497Z,12.17
2019-02-14T13:01:02.794Z,14.37
2019-02-14T13:03:33.544Z,17.37
2019-02-14T13:06:03.370Z,21.77
2019-02-14T13:08:32.892Z,19.67
2019-02-14T13:11:02.337Z,15.80
2019-02-14T13:13:32.240Z,15.27
2019-02-14T13:16:01.699Z,14.33
2019-02-14T13:18:31.374Z,18.03
2019-02-14T13:21:00.782Z,18.60
2019-02-14T13:23:30.132Z,13.40
2019-02-14T13:25:59.486Z,15.67
2019-02-14T13:28:28.827Z,12.83
2019-02-14T13:30:58.237Z,13.33
2019-02-14T13:33:27.973Z,13.17
2019-02-14T13:35:57.183Z,14.20
2019-02-14T13:38:26.352Z,14.20
2019-02-14T13:40:55.636Z,13.77
2019-02-14T13:43:25.096Z,14.73
2019-02-14T13:45:54.450Z,14.70
2019-02-14T13:48:24.223Z,24.13
2019-02-14T13:50:53.942Z,13.70
2019-02-14T13:53:24.573Z,17.70
2019-02-14T13:55:54.129Z,15.10
2019-02-14T13:58:23.317Z,21.93
2019-02-14T14:00:52.581Z,14.33
2019-02-14T14:03:22.153Z,17.33
2019-02-14T14:05:51.449Z,20.63
2019-02-14T14:08:20.977Z,14.27
2019-02-14T14:10:50.481Z,13.00
2019-02-14T14:13:19.789Z,15.63
2019-02-14T14:15:48.975Z,16.27
2019-02-14T14:18:18.162Z,15.03
2019-02-14T14:20:47.465Z,32.05
2019-02-14T14:23:17.027Z,50.55
2019-02-14T14:25:46.738Z,21.10
2019-02-14T14:28:16.104Z,16.15
2019-02-14T14:30:45.288Z,57.00
2019-02-14T14:33:14.778Z,30.08
2019-02-14T14:35:43.929Z,25.05
2019-02-14T14:38:13.187Z,25.37
2019-02-14T14:40:42.810Z,23.25
2019-02-14T14:43:34.071Z,24.77
2019-02-14T14:46:11.246Z,19.85
2019-02-14T14:48:42.022Z,15.48
2019-02-14T14:51:11.279Z,22.95
2019-02-14T14:53:41.133Z,28.38
2019-02-14T14:56:10.544Z,20.32
2019-02-14T14:58:39.780Z,13.95
2019-02-14T15:01:09.007Z,16.00
2019-02-14T15:03:38.461Z,18.20
2019-02-14T15:06:07.888Z,16.80
2019-02-14T15:08:37.110Z,14.20
2019-02-14T15:11:06.602Z,14.43
2019-02-14T15:13:35.757Z,19.47
2019-02-14T15:16:05.006Z,50.07
2019-02-14T15:18:34.257Z,36.93
2019-02-14T15:21:03.423Z,65.00
2019-02-14T15:23:32.591Z,55.73
2019-02-14T15:26:01.932Z,24.60
2019-02-14T15:28:31.086Z,22.27
2019-02-14T15:31:00.415Z,38.10
2019-02-14T15:33:29.664Z,64.33
2019-02-14T15:35:59.206Z,20.47
2019-02-14T15:38:28.643Z,22.67
2019-02-14T15:40:58.316Z,17.20
2019-02-14T15:43:27.556Z,24.30
2019-02-14T15:45:57.458Z,33.90
2019-02-14T15:48:26.749Z,19.95
2019-02-14T15:50:56.699Z,21.50
2019-02-14T15:53:26.384Z,21.82
2019-02-14T15:55:55.920Z,23.45
2019-02-14T15:58:25.409Z,24.93
2019-02-14T16:00:54.740Z,24.45
2019-02-14T16:03:24.417Z,23.80
2019-02-14T16:05:53.881Z,47.13
2019-02-14T16:08:23.919Z,55.80
2019-02-14T16:10:55.741Z,32.10
2019-02-14T16:13:24.196Z,31.77
2019-02-14T16:15:53.839Z,56.53
2019-02-14T16:18:25.301Z,25.13
2019-02-14T16:20:54.676Z,52.03
2019-02-14T16:23:23.893Z,39.87
2019-02-14T16:25:54.024Z,22.00
2019-02-14T16:28:23.821Z,49.53
2019-02-14T16:30:56.318Z,42.90
2019-02-14T16:33:24.148Z,36.50
2019-02-14T16:35:53.570Z,20.40
2019-02-14T16:38:22.861Z,33.80
2019-02-14T16:40:52.441Z,57.97
2019-02-14T16:43:22.183Z,62.57
2019-02-14T16:45:51.670Z,56.30
2019-02-14T16:48:20.895Z,41.33
2019-02-14T16:50:50.121Z,36.93
2019-02-14T16:53:19.733Z,84.03
2019-02-14T16:55:48.966Z,62.43
2019-02-14T16:58:18.157Z,58.83
2019-02-14T17:00:47.394Z,41.77
2019-02-14T17:03:16.611Z,58.27
2019-02-14T17:05:46.018Z,41.13
2019-02-14T17:08:15.269Z,38.07
2019-02-14T17:10:44.490Z,39.53
2019-02-14T17:13:13.677Z,35.63
2019-02-14T17:15:43.174Z,59.57
2019-02-14T17:18:12.416Z,33.10
2019-02-14T17:20:41.953Z,46.63
2019-02-14T17:23:11.901Z,35.10
2019-02-14T17:25:41.054Z,39.57
2019-02-14T17:28:10.433Z,45.53
2019-02-14T17:30:39.677Z,21.10
2019-02-14T17:33:09.044Z,18.07
2019-02-14T17:35:38.557Z,17.07
2019-02-14T17:38:07.839Z,21.20
2019-02-14T17:40:45.605Z,77.47
2019-02-14T17:43:08.269Z,24.10
2019-02-14T17:45:37.808Z,15.30
2019-02-14T17:48:07.076Z,15.47
2019-02-14T17:50:37.393Z,18.67
2019-02-14T17:53:07.041Z,22.63
2019-02-14T17:55:36.713Z,49.17
2019-02-14T17:58:06.101Z,38.70
2019-02-14T18:00:35.342Z,64.57
2019-02-14T18:03:04.535Z,119.47
2019-02-14T18:05:33.738Z,68.30
2019-02-14T18:08:03.345Z,71.60
2019-02-14T18:10:32.868Z,57.70
2019-02-14T18:13:02.121Z,56.20
2019-02-14T18:15:31.567Z,48.37
2019-02-14T18:18:00.806Z,86.77
2019-02-14T18:20:30.051Z,55.90
2019-02-14T18:22:59.765Z,29.83
2019-02-14T18:25:29.011Z,76.33
2019-02-14T18:27:58.500Z,29.50
2019-02-14T18:30:28.007Z,21.13
2019-02-14T18:32:57.261Z,20.80
2019-02-14T18:35:26.746Z,24.23
2019-02-14T18:37:56.019Z,29.50
2019-02-14T18:40:25.509Z,37.70
2019-02-14T18:42:55.594Z,38.67
2019-02-14T18:45:26.006Z,27.53
2019-02-14T18:47:55.373Z,37.40
2019-02-14T18:50:24.579Z,23.47
2019-02-14T18:52:53.974Z,20.97
2019-02-14T18:55:23.313Z,18.40
2019-02-14T18:57:52.562Z,18.83
2019-02-14T19:00:21.931Z,18.07
2019-02-14T19:02:51.582Z,27.00
2019-02-14T19:05:20.837Z,61.87
2019-02-14T19:07:50.222Z,50.23
2019-02-14T19:10:19.847Z,29.83
2019-02-14T19:12:49.430Z,35.53
2019-02-14T19:15:19.882Z,74.43
2019-02-14T19:17:50.075Z,56.37
2019-02-14T19:20:19.373Z,64.17
2019-02-14T19:22:48.837Z,76.83
2019-02-14T19:25:18.016Z,36.90
2019-02-14T19:27:47.583Z,21.23
2019-02-14T19:30:17.805Z,22.87
2019-02-14T19:32:47.963Z,27.10
2019-02-14T19:35:23.018Z,37.33
2019-02-14T19:37:48.137Z,44.83
2019-02-14T19:40:17.568Z,25.87
2019-02-14T19:42:46.938Z,20.67
2019-02-14T19:45:16.567Z,19.00
2019-02-14T19:47:47.135Z,20.43
2019-02-14T19:50:18.289Z,21.00
2019-02-14T19:52:47.883Z,19.23
2019-02-14T19:55:17.548Z,21.30
2019-02-14T19:57:47.326Z,20.13
2019-02-14T20:00:17.187Z,21.00
2019-02-14T20:02:46.627Z,21.33
2019-02-14T20:05:15.920Z,20.50
2019-02-14T20:07:45.436Z,20.60
2019-02-14T20:10:15.536Z,19.00
2019-02-14T20:12:44.905Z,21.03
2019-02-14T20:15:15.017Z,19.17
2019-02-14T20:17:44.504Z,19.30
2019-02-14T20:20:13.832Z,19.40
2019-02-14T20:22:43.332Z,18.07
2019-02-14T20:25:13.714Z,18.10
2019-02-14T20:27:43.308Z,18.57
2019-02-14T20:30:13.371Z,27.30
2019-02-14T20:32:43.451Z,24.37
2019-02-14T20:35:12.827Z,22.70
2019-02-14T20:37:42.265Z,19.70
2019-02-14T20:40:11.653Z,18.97
2019-02-14T20:42:40.851Z,18.97
2019-02-14T20:45:10.923Z,16.93
2019-02-14T20:47:41.446Z,17.67
2019-02-14T20:50:12.843Z,17.37
2019-02-14T20:52:42.727Z,17.73
2019-02-14T20:55:13.741Z,20.43
2019-02-14T20:57:42.902Z,20.43
2019-02-14T21:00:22.223Z,18.63
2019-02-14T21:02:51.565Z,22.00
2019-02-14T21:05:20.800Z,20.77
2019-02-14T21:07:50.718Z,18.20
2019-02-14T21:10:19.919Z,19.80
2019-02-14T21:12:49.595Z,18.23
2019-02-14T21:15:27.139Z,17.60
2019-02-14T21:17:57.629Z,19.03
2019-02-14T21:20:27.398Z,17.60
2019-02-14T21:22:57.107Z,17.77
2019-02-14T21:25:27.314Z,18.33
2019-02-14T21:27:57.394Z,18.20
2019-02-14T21:30:27.871Z,20.57
2019-02-14T21:32:58.070Z,23.47
2019-02-14T21:35:27.354Z,18.30
2019-02-14T21:37:58.392Z,17.13
2019-02-14T21:40:28.076Z,18.47
2019-02-14T21:42:58.123Z,18.50
2019-02-14T21:45:27.439Z,18.00
2019-02-14T21:47:56.861Z,16.73
2019-02-14T21:50:26.447Z,17.40
2019-02-14T21:52:57.327Z,17.27
2019-02-14T21:55:27.752Z,18.50
2019-02-14T21:57:58.333Z,18.33
2019-02-14T22:00:28.268Z,17.10
2019-02-14T22:02:58.190Z,17.50
2019-02-14T22:05:27.816Z,17.17
2019-02-14T22:07:58.045Z,16.70
2019-02-14T22:10:28.119Z,16.43
2019-02-14T22:12:57.998Z,17.43
2019-02-14T22:15:28.202Z,16.10
2019-02-14T22:17:58.667Z,16.30
2019-02-14T22:20:29.386Z,15.10
2019-02-14T22:22:59.790Z,15.37
2019-02-14T22:25:29.828Z,14.27
2019-02-14T22:27:59.277Z,13.57
2019-02-14T22:30:28.747Z,14.10
2019-02-14T22:32:58.318Z,14.03
2019-02-14T22:35:27.718Z,13.30
2019-02-14T22:37:57.132Z,14.50
2019-02-14T22:40:28.001Z,14.07
2019-02-14T22:42:57.344Z,14.00
2019-02-14T22:45:27.336Z,14.33
2019-02-14T22:47:56.808Z,14.77
2019-02-14T22:50:26.150Z,15.40
2019-02-14T22:52:56.575Z,14.30
2019-02-14T22:55:25.812Z,14.87
2019-02-14T22:57:55.391Z,14.10
2019-02-14T23:00:34.792Z,14.27
2019-02-14T23:03:04.395Z,12.77
2019-02-14T23:05:33.557Z,13.00
2019-02-14T23:08:02.849Z,15.60
2019-02-14T23:10:32.129Z,15.63
2019-02-14T23:13:01.704Z,15.80
2019-02-14T23:15:31.017Z,14.23
2019-02-14T23:18:00.214Z,16.13
2019-02-14T23:20:29.437Z,15.57
2019-02-14T23:22:58.689Z,14.80
2019-02-14T23:25:27.887Z,27.03
2019-02-14T23:27:57.243Z,22.67
2019-02-14T23:30:26.404Z,28.60
2019-02-14T23:32:55.897Z,31.13
2019-02-14T23:35:25.219Z,40.13
2019-02-14T23:37:54.542Z,18.10
2019-02-14T23:40:23.677Z,16.93
2019-02-14T23:42:52.863Z,16.93
2019-02-14T23:45:22.294Z,20.10
2019-02-14T23:47:51.505Z,14.70
2019-02-14T23:50:20.919Z,15.77
2019-02-14T23:52:50.059Z,13.30
2019-02-14T23:55:19.309Z,13.83
2019-02-14T23:57:48.448Z,18.50
